sensor_id;sensor_type;location;lat;lon;timestamp;temperature;humidity
46732;DHT22;32477;51.474;5.696;2023-06-24T00:02:04;18.00;99.90
46732;DHT22;32477;51.474;5.696;2023-06-24T00:04:29;18.00;99.90
46732;DHT22;32477;51.474;5.696;2023-06-24T00:06:55;17.90;99.90
46732;DHT22;32477;51.474;5.696;2023-06-24T00:09:25;17.90;99.90
46732;DHT22;32477;51.474;5.696;2023-06-24T00:11:56;17.90;99.90
46732;DHT22;32477;51.474;5.696;2023-06-24T00:14:22;17.80;99.90
46732;DHT22;32477;51.474;5.696;2023-06-24T00:16:53;17.70;99.90
46732;DHT22;32477;51.474;5.696;2023-06-24T00:19:20;17.60;99.90
46732;DHT22;32477;51.474;5.696;2023-06-24T00:21:47;17.60;99.90
46732;DHT22;32477;51.474;5.696;2023-06-24T00:24:13;17.60;99.90
46732;DHT22;32477;51.474;5.696;2023-06-24T00:26:39;17.60;99.90
46732;DHT22;32477;51.474;5.696;2023-06-24T00:29:04;17.50;99.90
46732;DHT22;32477;51.474;5.696;2023-06-24T00:31:30;17.40;99.90
46732;DHT22;32477;51.474;5.696;2023-06-24T00:33:56;17.40;99.90
46732;DHT22;32477;51.474;5.696;2023-06-24T00:36:21;17.20;99.90
46732;DHT22;32477;51.474;5.696;2023-06-24T00:38:47;17.10;99.90
46732;DHT22;32477;51.474;5.696;2023-06-24T00:41:16;17.20;99.90
46732;DHT22;32477;51.474;5.696;2023-06-24T00:43:42;17.20;99.90
46732;DHT22;32477;51.474;5.696;2023-06-24T00:46:08;17.30;99.90
46732;DHT22;32477;51.474;5.696;2023-06-24T00:48:34;17.30;99.90
46732;DHT22;32477;51.474;5.696;2023-06-24T00:50:59;17.30;99.90
46732;DHT22;32477;51.474;5.696;2023-06-24T00:53:25;17.40;99.90
46732;DHT22;32477;51.474;5.696;2023-06-24T00:55:52;17.50;99.90
46732;DHT22;32477;51.474;5.696;2023-06-24T00:58:19;17.40;99.90
46732;DHT22;32477;51.474;5.696;2023-06-24T01:00:47;17.30;99.90
46732;DHT22;32477;51.474;5.696;2023-06-24T01:03:22;17.20;99.90
46732;DHT22;32477;51.474;5.696;2023-06-24T01:05:48;17.20;99.90
46732;DHT22;32477;51.474;5.696;2023-06-24T01:08:14;17.00;99.90
46732;DHT22;32477;51.474;5.696;2023-06-24T01:10:41;17.00;99.90
46732;DHT22;32477;51.474;5.696;2023-06-24T01:13:07;17.00;99.90
46732;DHT22;32477;51.474;5.696;2023-06-24T01:15:33;17.10;99.90
46732;DHT22;32477;51.474;5.696;2023-06-24T01:21:02;16.90;99.90
46732;DHT22;32477;51.474;5.696;2023-06-24T01:23:58;16.90;99.90
46732;DHT22;32477;51.474;5.696;2023-06-24T01:26:40;16.80;99.90
46732;DHT22;32477;51.474;5.696;2023-06-24T01:31:59;16.70;99.90
46732;DHT22;32477;51.474;5.696;2023-06-24T01:34:41;16.60;99.90
46732;DHT22;32477;51.474;5.696;2023-06-24T01:37:32;16.50;99.90
46732;DHT22;32477;51.474;5.696;2023-06-24T01:40:15;16.50;99.90
46732;DHT22;32477;51.474;5.696;2023-06-24T01:42:43;16.50;99.90
46732;DHT22;32477;51.474;5.696;2023-06-24T01:45:13;16.40;99.90
46732;DHT22;32477;51.474;5.696;2023-06-24T01:47:44;16.40;99.90
46732;DHT22;32477;51.474;5.696;2023-06-24T01:50:12;16.40;99.90
46732;DHT22;32477;51.474;5.696;2023-06-24T01:52:42;16.30;99.90
46732;DHT22;32477;51.474;5.696;2023-06-24T01:55:11;16.40;99.90
46732;DHT22;32477;51.474;5.696;2023-06-24T01:57:40;16.30;99.90
46732;DHT22;32477;51.474;5.696;2023-06-24T02:00:08;16.30;99.90
46732;DHT22;32477;51.474;5.696;2023-06-24T02:02:36;16.20;99.90
46732;DHT22;32477;51.474;5.696;2023-06-24T02:05:03;16.10;99.90
46732;DHT22;32477;51.474;5.696;2023-06-24T02:07:31;16.00;99.90
46732;DHT22;32477;51.474;5.696;2023-06-24T02:09:59;16.00;99.90
46732;DHT22;32477;51.474;5.696;2023-06-24T02:12:26;15.90;99.90
46732;DHT22;32477;51.474;5.696;2023-06-24T02:14:55;15.90;99.90
46732;DHT22;32477;51.474;5.696;2023-06-24T02:17:24;16.00;99.90
46732;DHT22;32477;51.474;5.696;2023-06-24T02:19:51;16.10;99.90
46732;DHT22;32477;51.474;5.696;2023-06-24T02:22:18;16.20;99.90
46732;DHT22;32477;51.474;5.696;2023-06-24T02:24:45;16.20;99.90
46732;DHT22;32477;51.474;5.696;2023-06-24T02:27:12;16.20;99.90
46732;DHT22;32477;51.474;5.696;2023-06-24T02:29:39;16.30;99.90
46732;DHT22;32477;51.474;5.696;2023-06-24T02:32:06;16.30;99.90
46732;DHT22;32477;51.474;5.696;2023-06-24T02:34:32;16.40;99.90
46732;DHT22;32477;51.474;5.696;2023-06-24T02:36:58;16.40;99.90
46732;DHT22;32477;51.474;5.696;2023-06-24T02:39:24;16.40;99.90
46732;DHT22;32477;51.474;5.696;2023-06-24T02:41:49;16.30;99.90
46732;DHT22;32477;51.474;5.696;2023-06-24T02:44:16;16.30;99.90
46732;DHT22;32477;51.474;5.696;2023-06-24T02:46:43;16.30;99.90
46732;DHT22;32477;51.474;5.696;2023-06-24T02:49:12;16.20;99.90
46732;DHT22;32477;51.474;5.696;2023-06-24T02:51:39;16.10;99.90
46732;DHT22;32477;51.474;5.696;2023-06-24T02:54:06;16.00;99.90
46732;DHT22;32477;51.474;5.696;2023-06-24T02:56:32;16.00;99.90
46732;DHT22;32477;51.474;5.696;2023-06-24T02:58:58;16.00;99.90
46732;DHT22;32477;51.474;5.696;2023-06-24T03:01:25;15.90;99.90
46732;DHT22;32477;51.474;5.696;2023-06-24T03:03:55;16.00;99.90
46732;DHT22;32477;51.474;5.696;2023-06-24T03:06:22;15.90;99.90
46732;DHT22;32477;51.474;5.696;2023-06-24T03:08:48;15.70;99.90
46732;DHT22;32477;51.474;5.696;2023-06-24T03:11:15;15.70;99.90
46732;DHT22;32477;51.474;5.696;2023-06-24T03:13:42;15.70;99.90
46732;DHT22;32477;51.474;5.696;2023-06-24T03:16:08;15.70;99.90
46732;DHT22;32477;51.474;5.696;2023-06-24T03:18:41;15.60;99.90
46732;DHT22;32477;51.474;5.696;2023-06-24T03:21:08;15.50;99.90
46732;DHT22;32477;51.474;5.696;2023-06-24T03:23:34;15.50;99.90
46732;DHT22;32477;51.474;5.696;2023-06-24T03:26:00;15.50;99.90
46732;DHT22;32477;51.474;5.696;2023-06-24T03:28:26;15.40;99.90
46732;DHT22;32477;51.474;5.696;2023-06-24T03:30:52;15.40;99.90
46732;DHT22;32477;51.474;5.696;2023-06-24T03:33:18;15.30;99.90
46732;DHT22;32477;51.474;5.696;2023-06-24T03:35:44;15.30;99.90
46732;DHT22;32477;51.474;5.696;2023-06-24T03:38:09;15.30;99.90
46732;DHT22;32477;51.474;5.696;2023-06-24T03:40:35;15.20;99.90
46732;DHT22;32477;51.474;5.696;2023-06-24T03:43:01;15.20;99.90
46732;DHT22;32477;51.474;5.696;2023-06-24T03:45:26;15.30;99.90
46732;DHT22;32477;51.474;5.696;2023-06-24T03:47:52;15.20;99.90
46732;DHT22;32477;51.474;5.696;2023-06-24T03:50:18;15.20;99.90
46732;DHT22;32477;51.474;5.696;2023-06-24T03:52:43;15.20;99.90
46732;DHT22;32477;51.474;5.696;2023-06-24T03:55:10;15.20;99.90
46732;DHT22;32477;51.474;5.696;2023-06-24T03:57:36;15.30;99.90
46732;DHT22;32477;51.474;5.696;2023-06-24T04:00:03;15.40;99.90
46732;DHT22;32477;51.474;5.696;2023-06-24T04:02:46;15.50;99.90
46732;DHT22;32477;51.474;5.696;2023-06-24T04:05:12;15.50;99.90
46732;DHT22;32477;51.474;5.696;2023-06-24T04:07:38;15.50;99.90
46732;DHT22;32477;51.474;5.696;2023-06-24T04:10:05;15.50;99.90
46732;DHT22;32477;51.474;5.696;2023-06-24T04:12:37;15.50;99.90
46732;DHT22;32477;51.474;5.696;2023-06-24T04:15:04;15.50;99.90
46732;DHT22;32477;51.474;5.696;2023-06-24T04:17:30;15.60;99.90
46732;DHT22;32477;51.474;5.696;2023-06-24T04:19:56;15.70;99.90
46732;DHT22;32477;51.474;5.696;2023-06-24T04:22:21;15.80;99.90
46732;DHT22;32477;51.474;5.696;2023-06-24T04:24:47;15.90;99.90
46732;DHT22;32477;51.474;5.696;2023-06-24T04:27:13;16.10;99.90
46732;DHT22;32477;51.474;5.696;2023-06-24T04:29:39;16.20;99.90
46732;DHT22;32477;51.474;5.696;2023-06-24T04:32:05;16.30;99.90
46732;DHT22;32477;51.474;5.696;2023-06-24T04:34:30;16.30;99.90
46732;DHT22;32477;51.474;5.696;2023-06-24T04:36:57;16.50;99.90
46732;DHT22;32477;51.474;5.696;2023-06-24T04:39:23;16.70;99.90
46732;DHT22;32477;51.474;5.696;2023-06-24T04:41:49;16.80;99.90
46732;DHT22;32477;51.474;5.696;2023-06-24T04:44:15;17.00;99.90
46732;DHT22;32477;51.474;5.696;2023-06-24T04:46:40;17.10;99.90
46732;DHT22;32477;51.474;5.696;2023-06-24T04:49:06;17.20;99.90
46732;DHT22;32477;51.474;5.696;2023-06-24T04:51:32;17.30;99.90
46732;DHT22;32477;51.474;5.696;2023-06-24T04:53:58;17.40;99.90
46732;DHT22;32477;51.474;5.696;2023-06-24T04:56:24;17.50;99.90
46732;DHT22;32477;51.474;5.696;2023-06-24T04:58:50;17.60;99.90
46732;DHT22;32477;51.474;5.696;2023-06-24T05:01:17;17.70;99.90
46732;DHT22;32477;51.474;5.696;2023-06-24T05:03:42;17.80;99.90
46732;DHT22;32477;51.474;5.696;2023-06-24T05:06:08;17.90;99.90
46732;DHT22;32477;51.474;5.696;2023-06-24T05:08:34;18.00;99.90
46732;DHT22;32477;51.474;5.696;2023-06-24T05:10:59;18.00;99.90
46732;DHT22;32477;51.474;5.696;2023-06-24T05:13:27;18.10;99.90
46732;DHT22;32477;51.474;5.696;2023-06-24T05:15:53;18.20;99.90
46732;DHT22;32477;51.474;5.696;2023-06-24T05:18:19;18.30;99.90
46732;DHT22;32477;51.474;5.696;2023-06-24T05:20:44;18.40;99.90
46732;DHT22;32477;51.474;5.696;2023-06-24T05:23:10;18.40;99.90
46732;DHT22;32477;51.474;5.696;2023-06-24T05:25:36;18.50;99.90
46732;DHT22;32477;51.474;5.696;2023-06-24T05:28:02;18.60;99.90
46732;DHT22;32477;51.474;5.696;2023-06-24T05:30:27;18.70;99.90
46732;DHT22;32477;51.474;5.696;2023-06-24T05:32:53;18.80;99.90
46732;DHT22;32477;51.474;5.696;2023-06-24T05:35:19;18.90;99.90
46732;DHT22;32477;51.474;5.696;2023-06-24T05:37:45;19.00;99.90
46732;DHT22;32477;51.474;5.696;2023-06-24T05:40:11;19.10;99.90
46732;DHT22;32477;51.474;5.696;2023-06-24T05:42:38;19.20;99.90
46732;DHT22;32477;51.474;5.696;2023-06-24T05:45:04;19.30;99.90
46732;DHT22;32477;51.474;5.696;2023-06-24T05:47:32;19.50;99.90
46732;DHT22;32477;51.474;5.696;2023-06-24T05:49:57;19.90;99.90
46732;DHT22;32477;51.474;5.696;2023-06-24T05:52:23;20.40;99.90
46732;DHT22;32477;51.474;5.696;2023-06-24T05:54:49;20.70;99.90
46732;DHT22;32477;51.474;5.696;2023-06-24T05:57:15;21.20;99.90
46732;DHT22;32477;51.474;5.696;2023-06-24T05:59:41;21.50;99.90
46732;DHT22;32477;51.474;5.696;2023-06-24T06:02:06;21.90;99.90
46732;DHT22;32477;51.474;5.696;2023-06-24T06:04:32;22.40;99.90
46732;DHT22;32477;51.474;5.696;2023-06-24T06:06:58;22.50;99.90
46732;DHT22;32477;51.474;5.696;2023-06-24T06:09:23;22.80;99.90
46732;DHT22;32477;51.474;5.696;2023-06-24T06:11:49;23.10;99.90
46732;DHT22;32477;51.474;5.696;2023-06-24T06:14:15;23.30;99.90
46732;DHT22;32477;51.474;5.696;2023-06-24T06:16:40;23.50;99.90
46732;DHT22;32477;51.474;5.696;2023-06-24T06:19:06;24.00;99.90
46732;DHT22;32477;51.474;5.696;2023-06-24T06:21:32;24.60;99.90
46732;DHT22;32477;51.474;5.696;2023-06-24T06:23:57;24.60;99.90
46732;DHT22;32477;51.474;5.696;2023-06-24T06:26:23;24.50;99.90
46732;DHT22;32477;51.474;5.696;2023-06-24T06:28:49;24.70;99.90
46732;DHT22;32477;51.474;5.696;2023-06-24T06:31:15;24.90;99.90
46732;DHT22;32477;51.474;5.696;2023-06-24T06:33:41;25.30;99.90
46732;DHT22;32477;51.474;5.696;2023-06-24T06:36:07;25.40;99.90
46732;DHT22;32477;51.474;5.696;2023-06-24T06:38:33;25.20;99.90
46732;DHT22;32477;51.474;5.696;2023-06-24T06:40:59;25.10;99.90
46732;DHT22;32477;51.474;5.696;2023-06-24T06:43:25;25.00;99.90
46732;DHT22;32477;51.474;5.696;2023-06-24T06:45:50;25.40;99.90
46732;DHT22;32477;51.474;5.696;2023-06-24T06:48:16;26.00;99.90
46732;DHT22;32477;51.474;5.696;2023-06-24T06:50:42;26.20;99.90
46732;DHT22;32477;51.474;5.696;2023-06-24T06:53:08;26.30;99.80
46732;DHT22;32477;51.474;5.696;2023-06-24T06:55:33;26.40;99.00
46732;DHT22;32477;51.474;5.696;2023-06-24T06:57:59;26.10;99.20
46732;DHT22;32477;51.474;5.696;2023-06-24T07:00:25;26.50;98.30
46732;DHT22;32477;51.474;5.696;2023-06-24T07:02:50;26.70;97.70
46732;DHT22;32477;51.474;5.696;2023-06-24T07:05:16;26.70;96.90
46732;DHT22;32477;51.474;5.696;2023-06-24T07:07:43;26.50;96.80
46732;DHT22;32477;51.474;5.696;2023-06-24T07:10:11;26.90;96.40
46732;DHT22;32477;51.474;5.696;2023-06-24T07:12:36;27.00;95.80
46732;DHT22;32477;51.474;5.696;2023-06-24T07:15:02;27.40;94.70
46732;DHT22;32477;51.474;5.696;2023-06-24T07:17:28;27.10;94.60
46732;DHT22;32477;51.474;5.696;2023-06-24T07:19:54;27.10;93.90
46732;DHT22;32477;51.474;5.696;2023-06-24T07:22:19;27.00;93.90
46732;DHT22;32477;51.474;5.696;2023-06-24T07:24:45;27.30;93.90
46732;DHT22;32477;51.474;5.696;2023-06-24T07:27:11;27.70;93.40
46732;DHT22;32477;51.474;5.696;2023-06-24T07:29:36;28.00;93.20
46732;DHT22;32477;51.474;5.696;2023-06-24T07:32:02;28.30;92.80
46732;DHT22;32477;51.474;5.696;2023-06-24T07:34:29;28.40;92.20
46732;DHT22;32477;51.474;5.696;2023-06-24T07:36:56;28.90;91.10
46732;DHT22;32477;51.474;5.696;2023-06-24T07:39:21;28.80;91.20
46732;DHT22;32477;51.474;5.696;2023-06-24T07:41:47;28.60;91.50
46732;DHT22;32477;51.474;5.696;2023-06-24T07:44:13;28.90;91.10
46732;DHT22;32477;51.474;5.696;2023-06-24T07:46:38;29.00;90.80
46732;DHT22;32477;51.474;5.696;2023-06-24T07:49:04;28.80;90.80
46732;DHT22;32477;51.474;5.696;2023-06-24T07:51:30;29.20;90.90
46732;DHT22;32477;51.474;5.696;2023-06-24T07:53:55;29.40;90.00
46732;DHT22;32477;51.474;5.696;2023-06-24T07:56:21;29.10;90.20
46732;DHT22;32477;51.474;5.696;2023-06-24T07:58:46;28.60;90.30
46732;DHT22;32477;51.474;5.696;2023-06-24T08:01:12;28.40;88.20
46732;DHT22;32477;51.474;5.696;2023-06-24T08:03:38;28.30;88.90
46732;DHT22;32477;51.474;5.696;2023-06-24T08:06:04;28.50;90.00
46732;DHT22;32477;51.474;5.696;2023-06-24T08:08:29;29.00;88.80
46732;DHT22;32477;51.474;5.696;2023-06-24T08:10:55;29.60;86.50
46732;DHT22;32477;51.474;5.696;2023-06-24T08:13:21;29.80;85.90
46732;DHT22;32477;51.474;5.696;2023-06-24T08:15:46;29.90;85.30
46732;DHT22;32477;51.474;5.696;2023-06-24T08:18:12;30.00;85.70
46732;DHT22;32477;51.474;5.696;2023-06-24T08:20:38;29.90;86.20
46732;DHT22;32477;51.474;5.696;2023-06-24T08:23:04;30.10;86.70
46732;DHT22;32477;51.474;5.696;2023-06-24T08:25:29;31.00;83.30
46732;DHT22;32477;51.474;5.696;2023-06-24T08:27:56;31.20;82.50
46732;DHT22;32477;51.474;5.696;2023-06-24T08:30:21;31.40;81.90
46732;DHT22;32477;51.474;5.696;2023-06-24T08:32:47;31.60;82.00
46732;DHT22;32477;51.474;5.696;2023-06-24T08:35:13;32.00;80.50
46732;DHT22;32477;51.474;5.696;2023-06-24T08:37:39;31.60;78.40
46732;DHT22;32477;51.474;5.696;2023-06-24T08:40:05;31.80;81.00
46732;DHT22;32477;51.474;5.696;2023-06-24T08:42:31;32.10;79.40
46732;DHT22;32477;51.474;5.696;2023-06-24T08:44:57;32.50;78.00
46732;DHT22;32477;51.474;5.696;2023-06-24T08:47:24;32.70;76.20
46732;DHT22;32477;51.474;5.696;2023-06-24T08:49:58;32.80;76.00
46732;DHT22;32477;51.474;5.696;2023-06-24T08:52:30;32.50;74.70
46732;DHT22;32477;51.474;5.696;2023-06-24T08:54:58;32.40;72.60
46732;DHT22;32477;51.474;5.696;2023-06-24T08:57:24;32.30;74.10
46732;DHT22;32477;51.474;5.696;2023-06-24T08:59:50;32.20;73.10
46732;DHT22;32477;51.474;5.696;2023-06-24T09:02:15;32.10;73.10
46732;DHT22;32477;51.474;5.696;2023-06-24T09:04:41;32.30;71.80
46732;DHT22;32477;51.474;5.696;2023-06-24T09:07:07;32.60;71.60
46732;DHT22;32477;51.474;5.696;2023-06-24T09:09:44;32.60;71.50
46732;DHT22;32477;51.474;5.696;2023-06-24T09:12:12;32.80;69.80
46732;DHT22;32477;51.474;5.696;2023-06-24T09:14:38;32.80;69.80
46732;DHT22;32477;51.474;5.696;2023-06-24T09:17:06;32.60;70.10
46732;DHT22;32477;51.474;5.696;2023-06-24T09:19:32;32.80;70.50
46732;DHT22;32477;51.474;5.696;2023-06-24T09:22:02;32.60;70.00
46732;DHT22;32477;51.474;5.696;2023-06-24T09:24:37;32.60;71.40
46732;DHT22;32477;51.474;5.696;2023-06-24T09:27:03;32.90;68.90
46732;DHT22;32477;51.474;5.696;2023-06-24T09:29:32;32.60;67.60
46732;DHT22;32477;51.474;5.696;2023-06-24T09:31:58;33.10;67.50
46732;DHT22;32477;51.474;5.696;2023-06-24T09:34:28;33.40;68.40
46732;DHT22;32477;51.474;5.696;2023-06-24T09:36:58;33.30;67.90
46732;DHT22;32477;51.474;5.696;2023-06-24T09:39:25;32.80;68.90
46732;DHT22;32477;51.474;5.696;2023-06-24T09:41:57;32.60;69.20
46732;DHT22;32477;51.474;5.696;2023-06-24T09:44:23;33.20;68.90
46732;DHT22;32477;51.474;5.696;2023-06-24T09:46:49;33.40;67.40
46732;DHT22;32477;51.474;5.696;2023-06-24T09:49:15;33.40;67.50
46732;DHT22;32477;51.474;5.696;2023-06-24T09:51:44;33.20;67.70
46732;DHT22;32477;51.474;5.696;2023-06-24T09:54:12;33.00;68.20
46732;DHT22;32477;51.474;5.696;2023-06-24T09:56:43;33.50;68.10
46732;DHT22;32477;51.474;5.696;2023-06-24T09:59:12;33.70;67.00
46732;DHT22;32477;51.474;5.696;2023-06-24T10:01:40;33.30;67.40
46732;DHT22;32477;51.474;5.696;2023-06-24T10:04:06;33.40;67.50
46732;DHT22;32477;51.474;5.696;2023-06-24T10:06:33;33.90;68.60
46732;DHT22;32477;51.474;5.696;2023-06-24T10:09:00;34.50;67.60
46732;DHT22;32477;51.474;5.696;2023-06-24T10:11:26;34.60;65.40
46732;DHT22;32477;51.474;5.696;2023-06-24T10:13:52;34.30;65.10
46732;DHT22;32477;51.474;5.696;2023-06-24T10:16:19;33.80;64.60
46732;DHT22;32477;51.474;5.696;2023-06-24T10:18:45;33.50;65.80
46732;DHT22;32477;51.474;5.696;2023-06-24T10:21:11;33.90;64.90
46732;DHT22;32477;51.474;5.696;2023-06-24T10:23:42;34.20;64.80
46732;DHT22;32477;51.474;5.696;2023-06-24T10:26:28;34.60;64.70
46732;DHT22;32477;51.474;5.696;2023-06-24T10:47:35;34.80;63.20
46732;DHT22;32477;51.474;5.696;2023-06-24T10:50:01;34.50;62.50
46732;DHT22;32477;51.474;5.696;2023-06-24T10:52:27;34.30;63.30
46732;DHT22;32477;51.474;5.696;2023-06-24T10:54:53;34.20;62.80
46732;DHT22;32477;51.474;5.696;2023-06-24T10:57:27;34.40;63.60
46732;DHT22;32477;51.474;5.696;2023-06-24T10:59:55;34.30;63.20
46732;DHT22;32477;51.474;5.696;2023-06-24T11:02:23;34.40;62.60
46732;DHT22;32477;51.474;5.696;2023-06-24T11:04:51;34.60;63.50
46732;DHT22;32477;51.474;5.696;2023-06-24T11:07:21;34.60;63.10
46732;DHT22;32477;51.474;5.696;2023-06-24T11:09:52;34.40;63.20
46732;DHT22;32477;51.474;5.696;2023-06-24T11:12:18;35.00;64.20
46732;DHT22;32477;51.474;5.696;2023-06-24T11:14:44;35.20;62.40
46732;DHT22;32477;51.474;5.696;2023-06-24T11:17:10;34.50;63.80
46732;DHT22;32477;51.474;5.696;2023-06-24T11:19:35;34.50;62.50
46732;DHT22;32477;51.474;5.696;2023-06-24T11:22:05;34.80;63.60
46732;DHT22;32477;51.474;5.696;2023-06-24T11:24:31;35.50;62.90
46732;DHT22;32477;51.474;5.696;2023-06-24T11:26:58;35.20;62.60
46732;DHT22;32477;51.474;5.696;2023-06-24T11:29:23;34.50;62.90
46732;DHT22;32477;51.474;5.696;2023-06-24T11:31:50;35.30;63.30
46732;DHT22;32477;51.474;5.696;2023-06-24T11:34:16;35.30;63.10
46732;DHT22;32477;51.474;5.696;2023-06-24T11:36:42;35.60;62.00
46732;DHT22;32477;51.474;5.696;2023-06-24T11:39:08;35.30;62.50
46732;DHT22;32477;51.474;5.696;2023-06-24T11:41:34;35.10;63.00
46732;DHT22;32477;51.474;5.696;2023-06-24T11:44:00;35.10;62.60
46732;DHT22;32477;51.474;5.696;2023-06-24T11:46:29;35.70;62.30
46732;DHT22;32477;51.474;5.696;2023-06-24T11:49:07;36.00;61.70
46732;DHT22;32477;51.474;5.696;2023-06-24T11:51:33;36.30;61.50
46732;DHT22;32477;51.474;5.696;2023-06-24T11:54:00;36.30;61.50
46732;DHT22;32477;51.474;5.696;2023-06-24T11:56:36;36.50;61.20
46732;DHT22;32477;51.474;5.696;2023-06-24T11:59:04;36.00;60.00
46732;DHT22;32477;51.474;5.696;2023-06-24T12:01:34;36.90;61.10
46732;DHT22;32477;51.474;5.696;2023-06-24T12:04:12;37.10;59.60
46732;DHT22;32477;51.474;5.696;2023-06-24T12:06:42;36.40;60.30
46732;DHT22;32477;51.474;5.696;2023-06-24T12:09:09;36.80;61.00
46732;DHT22;32477;51.474;5.696;2023-06-24T12:11:34;37.20;60.20
46732;DHT22;32477;51.474;5.696;2023-06-24T12:14:00;37.00;59.80
46732;DHT22;32477;51.474;5.696;2023-06-24T12:16:26;37.10;60.00
46732;DHT22;32477;51.474;5.696;2023-06-24T12:18:52;37.40;60.20
46732;DHT22;32477;51.474;5.696;2023-06-24T12:21:19;37.10;61.10
46732;DHT22;32477;51.474;5.696;2023-06-24T12:23:44;38.20;60.00
46732;DHT22;32477;51.474;5.696;2023-06-24T12:26:11;37.60;59.70
46732;DHT22;32477;51.474;5.696;2023-06-24T12:28:36;36.70;60.10
46732;DHT22;32477;51.474;5.696;2023-06-24T12:31:02;36.20;60.30
46732;DHT22;32477;51.474;5.696;2023-06-24T12:33:30;36.20;59.90
46732;DHT22;32477;51.474;5.696;2023-06-24T12:35:55;36.50;59.90
46732;DHT22;32477;51.474;5.696;2023-06-24T12:38:21;36.00;59.10
46732;DHT22;32477;51.474;5.696;2023-06-24T12:40:46;36.80;59.40
46732;DHT22;32477;51.474;5.696;2023-06-24T12:43:13;37.20;59.40
46732;DHT22;32477;51.474;5.696;2023-06-24T12:45:40;36.50;60.10
46732;DHT22;32477;51.474;5.696;2023-06-24T12:48:09;36.20;61.00
46732;DHT22;32477;51.474;5.696;2023-06-24T12:50:34;36.40;60.30
46732;DHT22;32477;51.474;5.696;2023-06-24T12:53:00;36.30;60.90
46732;DHT22;32477;51.474;5.696;2023-06-24T12:55:27;36.10;59.90
46732;DHT22;32477;51.474;5.696;2023-06-24T12:57:53;36.50;59.50
46732;DHT22;32477;51.474;5.696;2023-06-24T13:00:22;37.10;60.40
46732;DHT22;32477;51.474;5.696;2023-06-24T13:02:48;37.20;59.70
46732;DHT22;32477;51.474;5.696;2023-06-24T13:05:15;36.70;59.70
46732;DHT22;32477;51.474;5.696;2023-06-24T13:07:40;36.80;60.00
46732;DHT22;32477;51.474;5.696;2023-06-24T13:10:06;37.10;60.70
46732;DHT22;32477;51.474;5.696;2023-06-24T13:12:33;37.30;59.50
46732;DHT22;32477;51.474;5.696;2023-06-24T13:14:59;37.10;60.90
46732;DHT22;32477;51.474;5.696;2023-06-24T13:17:25;37.40;59.80
46732;DHT22;32477;51.474;5.696;2023-06-24T13:19:51;36.60;59.40
46732;DHT22;32477;51.474;5.696;2023-06-24T13:22:17;35.50;59.20
46732;DHT22;32477;51.474;5.696;2023-06-24T13:24:44;36.00;59.80
46732;DHT22;32477;51.474;5.696;2023-06-24T13:27:10;35.40;59.60
46732;DHT22;32477;51.474;5.696;2023-06-24T13:29:36;34.40;60.20
46732;DHT22;32477;51.474;5.696;2023-06-24T13:32:01;34.80;60.50
46732;DHT22;32477;51.474;5.696;2023-06-24T13:34:27;34.60;61.10
46732;DHT22;32477;51.474;5.696;2023-06-24T13:36:52;35.60;61.70
46732;DHT22;32477;51.474;5.696;2023-06-24T13:39:18;36.10;60.30
46732;DHT22;32477;51.474;5.696;2023-06-24T13:41:45;35.80;60.30
46732;DHT22;32477;51.474;5.696;2023-06-24T13:44:10;36.00;60.80
46732;DHT22;32477;51.474;5.696;2023-06-24T13:46:36;36.30;60.30
46732;DHT22;32477;51.474;5.696;2023-06-24T13:49:02;36.40;60.80
46732;DHT22;32477;51.474;5.696;2023-06-24T13:51:28;36.40;60.20
46732;DHT22;32477;51.474;5.696;2023-06-24T13:53:54;36.00;59.80
46732;DHT22;32477;51.474;5.696;2023-06-24T13:56:21;36.30;59.60
46732;DHT22;32477;51.474;5.696;2023-06-24T13:58:48;35.70;61.70
46732;DHT22;32477;51.474;5.696;2023-06-24T14:01:14;35.40;61.30
46732;DHT22;32477;51.474;5.696;2023-06-24T14:03:41;35.60;60.50
46732;DHT22;32477;51.474;5.696;2023-06-24T14:06:09;35.40;61.00
46732;DHT22;32477;51.474;5.696;2023-06-24T14:08:35;35.30;61.20
46732;DHT22;32477;51.474;5.696;2023-06-24T14:11:01;35.40;60.80
46732;DHT22;32477;51.474;5.696;2023-06-24T14:13:28;34.50;61.20
46732;DHT22;32477;51.474;5.696;2023-06-24T14:15:55;33.90;61.40
46732;DHT22;32477;51.474;5.696;2023-06-24T14:18:21;33.70;61.10
46732;DHT22;32477;51.474;5.696;2023-06-24T14:20:47;33.90;61.40
46732;DHT22;32477;51.474;5.696;2023-06-24T14:23:13;34.20;61.20
46732;DHT22;32477;51.474;5.696;2023-06-24T14:25:38;34.30;61.80
46732;DHT22;32477;51.474;5.696;2023-06-24T14:28:05;34.40;61.50
46732;DHT22;32477;51.474;5.696;2023-06-24T14:30:31;34.30;61.60
46732;DHT22;32477;51.474;5.696;2023-06-24T14:32:57;34.90;60.60
46732;DHT22;32477;51.474;5.696;2023-06-24T14:35:22;34.90;61.90
46732;DHT22;32477;51.474;5.696;2023-06-24T14:37:48;34.50;62.50
46732;DHT22;32477;51.474;5.696;2023-06-24T14:40:14;34.40;61.90
46732;DHT22;32477;51.474;5.696;2023-06-24T14:42:40;34.30;61.30
46732;DHT22;32477;51.474;5.696;2023-06-24T14:45:05;34.50;61.70
46732;DHT22;32477;51.474;5.696;2023-06-24T14:47:31;34.70;61.80
46732;DHT22;32477;51.474;5.696;2023-06-24T14:49:57;34.30;62.00
46732;DHT22;32477;51.474;5.696;2023-06-24T14:52:23;34.70;62.00
46732;DHT22;32477;51.474;5.696;2023-06-24T14:54:49;34.70;63.10
46732;DHT22;32477;51.474;5.696;2023-06-24T14:57:14;34.40;61.70
46732;DHT22;32477;51.474;5.696;2023-06-24T14:59:41;34.20;62.50
46732;DHT22;32477;51.474;5.696;2023-06-24T15:02:07;33.00;62.20
46732;DHT22;32477;51.474;5.696;2023-06-24T15:04:34;32.30;64.50
46732;DHT22;32477;51.474;5.696;2023-06-24T15:07:00;31.90;65.40
46732;DHT22;32477;51.474;5.696;2023-06-24T15:09:26;31.80;66.90
46732;DHT22;32477;51.474;5.696;2023-06-24T15:11:52;31.30;67.00
46732;DHT22;32477;51.474;5.696;2023-06-24T15:14:17;31.00;67.30
46732;DHT22;32477;51.474;5.696;2023-06-24T15:16:43;30.40;68.30
46732;DHT22;32477;51.474;5.696;2023-06-24T15:19:09;29.90;69.20
46732;DHT22;32477;51.474;5.696;2023-06-24T15:21:34;29.80;70.40
46732;DHT22;32477;51.474;5.696;2023-06-24T15:24:00;29.80;71.50
46732;DHT22;32477;51.474;5.696;2023-06-24T15:26:26;29.90;71.60
46732;DHT22;32477;51.474;5.696;2023-06-24T15:28:51;29.80;71.00
46732;DHT22;32477;51.474;5.696;2023-06-24T15:31:19;29.60;71.10
46732;DHT22;32477;51.474;5.696;2023-06-24T15:33:45;29.10;70.70
46732;DHT22;32477;51.474;5.696;2023-06-24T15:36:10;28.60;71.20
46732;DHT22;32477;51.474;5.696;2023-06-24T15:38:36;28.40;71.90
46732;DHT22;32477;51.474;5.696;2023-06-24T15:41:02;28.50;73.10
46732;DHT22;32477;51.474;5.696;2023-06-24T15:43:28;28.50;72.30
46732;DHT22;32477;51.474;5.696;2023-06-24T15:45:53;28.40;72.70
46732;DHT22;32477;51.474;5.696;2023-06-24T15:48:19;28.50;73.50
46732;DHT22;32477;51.474;5.696;2023-06-24T15:50:45;28.50;73.30
46732;DHT22;32477;51.474;5.696;2023-06-24T15:53:10;28.70;74.40